Time;durP1;ratioP1;P1;durP2;ratioP2;P2;SDS_P1;SDS_P2;PMS_P1;PMS_P2;Temp;Humidity;BMP_temperature;BMP_pressure;BME280_temperature;BME280_humidity;BME280_pressure;Samples;Min_cycle;Max_cycle;Signal;HPM_P1;HPM_P2
2021/10/07 00:00:57;;;;;;;45.47;31.23;;;;;;;;;;757475;183;918908;-62
2021/10/07 00:03:22;;;;;;;46.13;33.57;;;;;;;;;;747378;184;1020483;-62
2021/10/07 00:05:48;;;;;;;46.27;31.87;;;;;;;;;;771308;182;995091;-62
2021/10/07 00:08:13;;;;;;;56.13;33.22;;;;;;;;;;761951;180;918677;-62
2021/10/07 00:10:39;;;;;;;50.23;32.23;;;;;;;;;;757759;182;919681;-62
2021/10/07 00:13:05;;;;;;;48.83;34.47;;;;;;;;;;764626;181;915694;-63
2021/10/07 00:15:31;;;;;;;45.07;32.43;;;;;;;;;;763079;182;916981;-62
2021/10/07 00:17:57;;;;;;;47.03;31.50;;;;;;;;;;765599;182;915498;-62
2021/10/07 00:20:23;;;;;;;50.80;32.17;;;;;;;;;;765586;180;916377;-62
2021/10/07 00:22:49;;;;;;;43.60;30.40;;;;;;;;;;769428;182;919134;-62
2021/10/07 00:25:14;;;;;;;52.20;34.40;;;;;;;;;;764743;181;919195;-62
2021/10/07 00:27:40;;;;;;;49.10;33.93;;;;;;;;;;761090;182;919126;-63
2021/10/07 00:30:11;;;;;;;52.57;34.33;;;;;;;;;;772484;182;918820;-62
2021/10/07 00:32:36;;;;;;;44.63;32.80;;;;;;;;;;759306;182;919138;-62
2021/10/07 00:35:15;;;;;;;51.70;33.07;;;;;;;;;;761203;181;920657;-62
2021/10/07 00:40:12;;;;;;;45.17;32.50;;;;;;;;;;752469;183;918642;-62
2021/10/07 00:42:38;;;;;;;50.73;33.63;;;;;;;;;;772994;181;915253;-62
2021/10/07 00:45:04;;;;;;;46.13;32.50;;;;;;;;;;767146;181;916639;-61
2021/10/07 00:47:29;;;;;;;43.30;31.80;;;;;;;;;;755056;182;916430;-62
2021/10/07 00:49:55;;;;;;;50.47;31.87;;;;;;;;;;767781;181;915371;-62
2021/10/07 00:52:21;;;;;;;49.33;30.97;;;;;;;;;;756458;183;915281;-61
2021/10/07 00:54:47;;;;;;;50.33;32.10;;;;;;;;;;747960;186;918861;-62
2021/10/07 00:57:17;;;;;;;47.53;31.20;;;;;;;;;;771856;181;919078;-63
2021/10/07 00:59:40;;;;;;;46.70;31.70;;;;;;;;;;759563;182;918808;-62
2021/10/07 01:02:05;;;;;;;43.53;31.80;;;;;;;;;;763738;181;919254;-62
2021/10/07 01:04:31;;;;;;;48.67;32.80;;;;;;;;;;765286;181;919018;-62
2021/10/07 01:06:57;;;;;;;48.53;32.63;;;;;;;;;;769214;182;919358;-62
2021/10/07 01:09:23;;;;;;;46.10;32.70;;;;;;;;;;766436;182;917916;-62
2021/10/07 01:11:49;;;;;;;50.42;34.33;;;;;;;;;;763810;182;919982;-62
2021/10/07 01:14:17;;;;;;;47.73;34.20;;;;;;;;;;768265;182;941625;-62
2021/10/07 01:16:41;;;;;;;43.37;29.97;;;;;;;;;;766295;181;920578;-62
2021/10/07 01:19:06;;;;;;;45.53;32.90;;;;;;;;;;760655;180;1020891;-64
2021/10/07 01:21:32;;;;;;;54.53;33.77;;;;;;;;;;770129;182;919534;-63
2021/10/07 01:23:58;;;;;;;47.13;32.40;;;;;;;;;;761425;182;919869;-61
2021/10/07 01:26:26;;;;;;;44.67;34.30;;;;;;;;;;762556;182;918825;-62
2021/10/07 01:28:51;;;;;;;44.95;31.30;;;;;;;;;;767876;180;916056;-62
2021/10/07 01:31:16;;;;;;;54.37;34.40;;;;;;;;;;772871;181;916281;-63
2021/10/07 01:33:42;;;;;;;49.70;31.40;;;;;;;;;;765751;180;916347;-62
2021/10/07 01:36:08;;;;;;;54.13;33.65;;;;;;;;;;764440;181;919659;-62
2021/10/07 01:38:34;;;;;;;48.47;32.67;;;;;;;;;;762672;181;919529;-62
2021/10/07 01:41:00;;;;;;;50.27;34.03;;;;;;;;;;760185;181;919709;-61
2021/10/07 01:43:26;;;;;;;57.30;33.57;;;;;;;;;;767649;182;918608;-63
2021/10/07 01:45:52;;;;;;;53.83;35.63;;;;;;;;;;772913;182;919434;-62
2021/10/07 01:48:17;;;;;;;49.57;34.23;;;;;;;;;;763710;182;919652;-62
2021/10/07 01:50:43;;;;;;;55.47;35.55;;;;;;;;;;761750;182;919839;-62
2021/10/07 01:53:09;;;;;;;55.07;35.60;;;;;;;;;;769003;180;918093;-62
2021/10/07 01:55:35;;;;;;;56.70;35.13;;;;;;;;;;769843;180;919285;-62
2021/10/07 01:58:01;;;;;;;56.10;36.67;;;;;;;;;;767729;181;920700;-62
2021/10/07 02:00:27;;;;;;;68.30;36.50;;;;;;;;;;764223;180;919242;-61
2021/10/07 02:02:52;;;;;;;48.83;33.70;;;;;;;;;;773394;181;919539;-62
2021/10/07 02:05:18;;;;;;;51.73;34.50;;;;;;;;;;766258;181;918927;-62
2021/10/07 02:07:44;;;;;;;53.43;35.63;;;;;;;;;;763861;181;1012372;-62
2021/10/07 02:10:14;;;;;;;53.30;36.60;;;;;;;;;;768783;181;919014;-62
2021/10/07 02:12:36;;;;;;;54.57;37.57;;;;;;;;;;765199;182;919116;-62
2021/10/07 02:15:02;;;;;;;54.27;36.87;;;;;;;;;;762802;182;1020817;-61
2021/10/07 02:17:27;;;;;;;62.97;36.47;;;;;;;;;;772948;182;920223;-62
2021/10/07 02:19:53;;;;;;;58.38;40.78;;;;;;;;;;764746;182;927067;-62
2021/10/07 02:22:19;;;;;;;61.20;38.37;;;;;;;;;;766042;181;1022056;-62
2021/10/07 02:24:45;;;;;;;57.57;37.67;;;;;;;;;;764402;180;1047284;-62
2021/10/07 02:27:11;;;;;;;59.20;37.20;;;;;;;;;;765681;182;921786;-62
2021/10/07 02:29:37;;;;;;;57.10;39.10;;;;;;;;;;768916;182;919209;-62
2021/10/07 02:32:04;;;;;;;60.83;36.40;;;;;;;;;;764205;182;917840;-63
2021/10/07 02:34:30;;;;;;;51.63;36.30;;;;;;;;;;769152;182;919861;-62
2021/10/07 02:36:56;;;;;;;67.90;40.30;;;;;;;;;;757838;180;919760;-61
2021/10/07 02:39:22;;;;;;;60.40;41.60;;;;;;;;;;765368;180;918989;-62
2021/10/07 02:41:47;;;;;;;58.65;36.60;;;;;;;;;;772057;181;918416;-62
2021/10/07 02:44:13;;;;;;;60.20;39.03;;;;;;;;;;762034;182;919388;-62
2021/10/07 02:46:39;;;;;;;70.77;39.47;;;;;;;;;;759831;182;918695;-62
2021/10/07 02:49:05;;;;;;;54.60;37.42;;;;;;;;;;759391;182;919338;-62
2021/10/07 02:51:31;;;;;;;52.20;36.13;;;;;;;;;;769198;181;919051;-62
2021/10/07 02:53:57;;;;;;;55.80;37.10;;;;;;;;;;761931;183;918385;-62
2021/10/07 02:56:23;;;;;;;60.07;38.57;;;;;;;;;;760756;181;918287;-63
2021/10/07 02:58:48;;;;;;;65.87;41.50;;;;;;;;;;765924;181;919845;-62
2021/10/07 03:01:14;;;;;;;55.07;38.37;;;;;;;;;;762569;182;920008;-62
2021/10/07 03:03:40;;;;;;;58.00;39.87;;;;;;;;;;761110;180;1161714;-62
2021/10/07 03:06:06;;;;;;;59.90;40.40;;;;;;;;;;770207;179;918515;-62
2021/10/07 03:08:32;;;;;;;57.47;39.13;;;;;;;;;;766803;181;1021663;-62
2021/10/07 03:10:58;;;;;;;65.80;40.07;;;;;;;;;;759563;182;1021105;-62
2021/10/07 03:13:23;;;;;;;62.50;39.67;;;;;;;;;;772486;181;919382;-62
2021/10/07 03:15:49;;;;;;;57.40;36.70;;;;;;;;;;763900;179;936072;-62
2021/10/07 03:18:15;;;;;;;56.17;37.07;;;;;;;;;;763422;181;918311;-62
2021/10/07 03:20:41;;;;;;;63.90;39.30;;;;;;;;;;765441;181;919868;-63
2021/10/07 03:23:07;;;;;;;63.57;37.50;;;;;;;;;;772362;181;919322;-62
2021/10/07 03:25:33;;;;;;;68.00;43.10;;;;;;;;;;761817;182;920014;-64
2021/10/07 03:27:59;;;;;;;63.90;39.57;;;;;;;;;;766119;181;919845;-63
2021/10/07 03:30:25;;;;;;;60.53;39.13;;;;;;;;;;771011;181;918676;-63
2021/10/07 03:32:51;;;;;;;59.13;39.87;;;;;;;;;;764075;182;918432;-64
2021/10/07 03:35:17;;;;;;;59.13;39.43;;;;;;;;;;764239;181;917433;-62
2021/10/07 03:37:42;;;;;;;56.80;37.53;;;;;;;;;;772940;182;919109;-63
2021/10/07 03:40:09;;;;;;;60.73;38.20;;;;;;;;;;754281;183;1098685;-63
2021/10/07 03:42:35;;;;;;;59.77;39.93;;;;;;;;;;748344;184;920296;-62
2021/10/07 03:45:02;;;;;;;54.57;37.57;;;;;;;;;;749112;186;919370;-63
2021/10/07 03:47:27;;;;;;;57.70;37.10;;;;;;;;;;769093;182;926727;-63
2021/10/07 03:49:53;;;;;;;59.03;38.57;;;;;;;;;;755878;183;918947;-63
2021/10/07 03:52:19;;;;;;;58.40;37.72;;;;;;;;;;746886;186;1020539;-62
2021/10/07 03:54:44;;;;;;;53.67;35.27;;;;;;;;;;751774;186;1019911;-61
2021/10/07 03:57:10;;;;;;;52.73;36.43;;;;;;;;;;737184;188;919085;-62
2021/10/07 03:59:36;;;;;;;57.40;37.70;;;;;;;;;;764279;182;919269;-61
2021/10/07 04:02:02;;;;;;;57.23;38.23;;;;;;;;;;767480;180;921419;-62
2021/10/07 04:04:28;;;;;;;60.13;37.80;;;;;;;;;;762456;182;919271;-61
2021/10/07 04:06:54;;;;;;;60.13;37.60;;;;;;;;;;766703;181;920267;-62
2021/10/07 04:09:20;;;;;;;62.80;37.93;;;;;;;;;;766328;182;918389;-61
2021/10/07 04:11:45;;;;;;;70.67;39.07;;;;;;;;;;760748;182;1020213;-62
2021/10/07 04:14:11;;;;;;;67.43;39.73;;;;;;;;;;758619;181;919160;-62
2021/10/07 04:16:37;;;;;;;58.07;36.10;;;;;;;;;;769664;180;918987;-62
2021/10/07 04:19:03;;;;;;;52.33;36.03;;;;;;;;;;768831;181;816385;-62
2021/10/07 04:21:29;;;;;;;53.70;35.60;;;;;;;;;;768139;181;1038443;-62
2021/10/07 04:23:55;;;;;;;50.50;36.33;;;;;;;;;;767458;182;615904;-62
2021/10/07 04:26:20;;;;;;;56.77;36.30;;;;;;;;;;777480;181;618573;-62
2021/10/07 04:28:46;;;;;;;56.67;36.40;;;;;;;;;;771017;181;629794;-62
2021/10/07 04:31:12;;;;;;;54.13;36.23;;;;;;;;;;771362;180;626303;-62
2021/10/07 04:33:38;;;;;;;58.10;35.97;;;;;;;;;;771113;181;631559;-61
2021/10/07 04:36:04;;;;;;;57.53;37.53;;;;;;;;;;767963;182;625955;-61
2021/10/07 04:38:30;;;;;;;58.13;35.70;;;;;;;;;;767319;182;615592;-61
2021/10/07 04:40:56;;;;;;;69.37;41.67;;;;;;;;;;769707;181;918493;-64
2021/10/07 04:43:22;;;;;;;50.13;35.40;;;;;;;;;;772824;182;918740;-61
2021/10/07 04:45:48;;;;;;;54.20;36.60;;;;;;;;;;765869;181;919044;-62
2021/10/07 04:48:13;;;;;;;58.73;36.53;;;;;;;;;;759196;182;919074;-61
2021/10/07 04:50:39;;;;;;;54.70;35.40;;;;;;;;;;768827;182;919512;-61
2021/10/07 04:53:05;;;;;;;56.90;35.93;;;;;;;;;;758976;182;919456;-62
2021/10/07 04:55:31;;;;;;;50.07;35.37;;;;;;;;;;770092;182;921325;-61
2021/10/07 04:57:57;;;;;;;52.60;34.67;;;;;;;;;;770235;182;918876;-61
2021/10/07 05:00:23;;;;;;;55.33;33.70;;;;;;;;;;765190;182;919166;-62
2021/10/07 05:02:48;;;;;;;56.70;36.07;;;;;;;;;;764985;182;1019666;-61
2021/10/07 05:05:14;;;;;;;57.63;33.80;;;;;;;;;;761819;182;918546;-61
2021/10/07 05:07:41;;;;;;;58.47;37.95;;;;;;;;;;766383;182;1022237;-66
2021/10/07 05:10:08;;;;;;;56.33;34.70;;;;;;;;;;737133;188;919270;-62
2021/10/07 05:12:33;;;;;;;54.28;33.67;;;;;;;;;;765878;182;914759;-62
2021/10/07 05:14:59;;;;;;;50.30;34.10;;;;;;;;;;767300;182;915443;-62
2021/10/07 05:17:25;;;;;;;53.60;34.00;;;;;;;;;;759279;182;919540;-61
2021/10/07 05:19:51;;;;;;;55.93;35.30;;;;;;;;;;746159;186;919218;-62
2021/10/07 05:22:17;;;;;;;52.47;32.47;;;;;;;;;;745157;188;918823;-62
2021/10/07 05:24:43;;;;;;;54.07;33.80;;;;;;;;;;761837;182;1068196;-61
2021/10/07 05:27:09;;;;;;;58.33;34.50;;;;;;;;;;760843;182;919862;-62
2021/10/07 05:29:35;;;;;;;52.90;33.53;;;;;;;;;;762930;182;919837;-62
2021/10/07 05:32:00;;;;;;;49.13;31.57;;;;;;;;;;759369;182;919137;-62
2021/10/07 05:34:26;;;;;;;51.70;31.93;;;;;;;;;;766641;181;920138;-62
2021/10/07 05:36:52;;;;;;;50.53;32.80;;;;;;;;;;765553;181;918257;-62
2021/10/07 05:39:18;;;;;;;48.63;31.13;;;;;;;;;;769152;182;919680;-62
2021/10/07 05:41:44;;;;;;;58.03;30.70;;;;;;;;;;763328;181;1020586;-61
2021/10/07 05:44:10;;;;;;;56.50;32.37;;;;;;;;;;764495;181;919488;-63
2021/10/07 05:46:36;;;;;;;55.15;32.20;;;;;;;;;;771346;181;918328;-62
2021/10/07 05:49:01;;;;;;;51.00;28.57;;;;;;;;;;766574;182;919927;-62
2021/10/07 05:51:27;;;;;;;50.47;30.15;;;;;;;;;;766606;182;919283;-62
2021/10/07 05:53:53;;;;;;;48.03;29.27;;;;;;;;;;769752;182;919113;-60
2021/10/07 05:56:19;;;;;;;51.33;27.50;;;;;;;;;;749471;185;918669;-63
2021/10/07 05:58:45;;;;;;;42.33;27.97;;;;;;;;;;763608;182;919546;-62
2021/10/07 06:01:11;;;;;;;41.00;25.98;;;;;;;;;;763401;179;1101848;-62
2021/10/07 06:03:37;;;;;;;38.30;23.53;;;;;;;;;;770487;182;879906;-62
2021/10/07 06:06:03;;;;;;;43.47;24.40;;;;;;;;;;748287;186;918862;-62
2021/10/07 06:08:28;;;;;;;37.07;22.00;;;;;;;;;;757108;183;919240;-63
2021/10/07 06:10:54;;;;;;;32.30;21.30;;;;;;;;;;766864;181;918631;-61
2021/10/07 06:13:20;;;;;;;33.27;21.30;;;;;;;;;;762040;180;918718;-62
2021/10/07 06:15:48;;;;;;;39.70;23.40;;;;;;;;;;763415;180;919242;-62
2021/10/07 06:18:12;;;;;;;32.40;21.10;;;;;;;;;;765947;182;918743;-61
2021/10/07 06:20:38;;;;;;;32.83;21.10;;;;;;;;;;761130;183;920159;-62
2021/10/07 06:23:04;;;;;;;36.20;21.10;;;;;;;;;;761147;182;918795;-62
2021/10/07 06:25:30;;;;;;;32.58;19.90;;;;;;;;;;759724;181;921072;-62
2021/10/07 06:27:56;;;;;;;31.33;19.70;;;;;;;;;;767378;182;919143;-62
2021/10/07 06:30:22;;;;;;;30.17;19.23;;;;;;;;;;764691;182;920926;-62
2021/10/07 06:32:49;;;;;;;30.90;20.47;;;;;;;;;;763122;180;1017979;-62
2021/10/07 06:35:14;;;;;;;29.23;18.03;;;;;;;;;;773707;182;916579;-62
2021/10/07 06:37:40;;;;;;;47.00;22.40;;;;;;;;;;758223;181;922393;-62
2021/10/07 06:40:06;;;;;;;34.43;20.40;;;;;;;;;;766467;180;913082;-62
2021/10/07 06:42:32;;;;;;;37.33;23.20;;;;;;;;;;766617;181;916543;-62
2021/10/07 06:44:58;;;;;;;30.73;19.60;;;;;;;;;;763537;181;915594;-62
2021/10/07 06:47:25;;;;;;;32.17;19.17;;;;;;;;;;760392;180;916656;-63
2021/10/07 06:49:50;;;;;;;35.23;20.33;;;;;;;;;;758847;180;915782;-63
2021/10/07 06:52:16;;;;;;;28.33;18.23;;;;;;;;;;766887;181;2143655;-64
2021/10/07 06:54:42;;;;;;;29.00;18.27;;;;;;;;;;765207;182;915592;-63
2021/10/07 06:57:08;;;;;;;30.25;18.40;;;;;;;;;;764999;181;929491;-64
2021/10/07 06:59:34;;;;;;;26.77;17.53;;;;;;;;;;765176;182;919569;-64
2021/10/07 07:02:00;;;;;;;24.98;16.35;;;;;;;;;;747458;186;919483;-64
2021/10/07 07:04:25;;;;;;;22.90;15.53;;;;;;;;;;762877;182;919219;-63
2021/10/07 07:06:53;;;;;;;22.80;15.10;;;;;;;;;;764778;179;995112;-63
2021/10/07 07:09:17;;;;;;;22.27;14.40;;;;;;;;;;764758;182;920369;-64
2021/10/07 07:11:43;;;;;;;25.48;16.37;;;;;;;;;;755462;183;918478;-63
2021/10/07 07:14:09;;;;;;;22.30;14.30;;;;;;;;;;766907;182;1018650;-63
2021/10/07 07:16:35;;;;;;;21.40;13.60;;;;;;;;;;767628;182;919776;-63
2021/10/07 07:19:01;;;;;;;19.00;13.07;;;;;;;;;;766061;182;918813;-64
2021/10/07 07:21:30;;;;;;;21.73;13.37;;;;;;;;;;762588;182;918808;-63
2021/10/07 07:23:54;;;;;;;24.83;12.70;;;;;;;;;;769651;181;917368;-63
2021/10/07 07:26:19;;;;;;;24.57;12.63;;;;;;;;;;759412;182;919606;-63
2021/10/07 07:28:45;;;;;;;18.93;12.30;;;;;;;;;;760370;184;918663;-63
2021/10/07 07:31:10;;;;;;;24.40;10.73;;;;;;;;;;768534;182;919643;-64
2021/10/07 07:33:36;;;;;;;15.07;10.57;;;;;;;;;;767101;182;918307;-63
2021/10/07 07:36:02;;;;;;;15.30;12.07;;;;;;;;;;765102;182;919407;-63
2021/10/07 07:38:28;;;;;;;22.98;12.40;;;;;;;;;;764689;182;919577;-62
2021/10/07 07:40:54;;;;;;;27.73;10.90;;;;;;;;;;775660;181;918391;-63
2021/10/07 07:43:20;;;;;;;14.07;11.10;;;;;;;;;;761277;183;918244;-63
2021/10/07 07:45:46;;;;;;;14.23;10.20;;;;;;;;;;757998;180;918382;-63
2021/10/07 07:48:12;;;;;;;15.57;9.70;;;;;;;;;;768086;182;918277;-63
2021/10/07 07:50:37;;;;;;;24.52;16.98;;;;;;;;;;763647;179;959800;-63
2021/10/07 07:53:03;;;;;;;26.03;19.13;;;;;;;;;;765750;181;918581;-64
2021/10/07 07:55:29;;;;;;;25.47;13.90;;;;;;;;;;768882;181;918433;-63
2021/10/07 07:57:55;;;;;;;15.67;12.27;;;;;;;;;;764312;180;1022104;-63
2021/10/07 08:00:21;;;;;;;18.47;14.50;;;;;;;;;;766234;181;918283;-63
2021/10/07 08:02:47;;;;;;;17.63;13.70;;;;;;;;;;770412;181;919596;-63
2021/10/07 08:05:14;;;;;;;12.43;9.67;;;;;;;;;;760280;181;919533;-62
2021/10/07 08:07:38;;;;;;;14.20;11.07;;;;;;;;;;762656;181;920194;-63
2021/10/07 08:10:05;;;;;;;11.63;8.33;;;;;;;;;;747901;186;918080;-63
2021/10/07 08:12:33;;;;;;;24.03;15.67;;;;;;;;;;751317;185;919272;-64
2021/10/07 08:14:57;;;;;;;62.13;47.17;;;;;;;;;;762768;180;918566;-63
2021/10/07 08:17:22;;;;;;;16.10;11.80;;;;;;;;;;747487;186;919703;-63
2021/10/07 08:19:49;;;;;;;13.70;10.10;;;;;;;;;;772657;182;919166;-63
2021/10/07 08:22:14;;;;;;;15.50;11.93;;;;;;;;;;759961;182;918934;-63
2021/10/07 08:24:40;;;;;;;14.13;10.40;;;;;;;;;;763420;182;918497;-63
2021/10/07 08:27:06;;;;;;;17.63;11.47;;;;;;;;;;768343;183;918650;-62
2021/10/07 08:29:31;;;;;;;18.70;10.97;;;;;;;;;;767072;182;919399;-63
2021/10/07 08:31:57;;;;;;;18.20;11.97;;;;;;;;;;767989;182;919485;-62
2021/10/07 08:34:23;;;;;;;17.87;11.20;;;;;;;;;;767358;182;918320;-62
2021/10/07 08:36:51;;;;;;;16.20;10.77;;;;;;;;;;761076;181;1020939;-62
2021/10/07 08:39:15;;;;;;;15.20;11.37;;;;;;;;;;761298;183;919880;-61
2021/10/07 08:41:41;;;;;;;15.90;9.90;;;;;;;;;;755624;181;1122872;-63
2021/10/07 08:44:07;;;;;;;14.80;10.47;;;;;;;;;;770059;181;918420;-63
2021/10/07 08:46:32;;;;;;;16.30;10.20;;;;;;;;;;764963;182;919652;-63
2021/10/07 08:49:00;;;;;;;15.35;10.70;;;;;;;;;;757015;182;927384;-62
2021/10/07 08:51:25;;;;;;;16.93;11.60;;;;;;;;;;759650;180;918601;-62
2021/10/07 08:53:50;;;;;;;16.20;11.90;;;;;;;;;;762526;180;920957;-62
2021/10/07 08:56:16;;;;;;;19.00;12.57;;;;;;;;;;761410;183;919259;-64
2021/10/07 08:58:42;;;;;;;17.15;12.25;;;;;;;;;;762943;181;919008;-61
2021/10/07 09:01:08;;;;;;;18.33;12.93;;;;;;;;;;765526;182;917846;-62
2021/10/07 09:03:34;;;;;;;25.50;12.73;;;;;;;;;;761775;181;920284;-63
2021/10/07 09:06:06;;;;;;;18.17;12.17;;;;;;;;;;766374;181;918780;-64
2021/10/07 09:08:31;;;;;;;21.70;14.10;;;;;;;;;;770825;181;919976;-62
2021/10/07 09:10:57;;;;;;;18.37;13.30;;;;;;;;;;768677;181;1044212;-63
2021/10/07 09:13:25;;;;;;;17.30;12.98;;;;;;;;;;767230;182;919617;-62
2021/10/07 09:15:50;;;;;;;16.50;11.73;;;;;;;;;;768067;181;919533;-62
2021/10/07 09:18:16;;;;;;;18.83;13.53;;;;;;;;;;768931;181;919574;-62
2021/10/07 09:20:42;;;;;;;34.72;15.10;;;;;;;;;;768841;182;1021113;-63
2021/10/07 09:23:09;;;;;;;23.90;15.13;;;;;;;;;;768084;182;919663;-62
2021/10/07 09:25:40;;;;;;;21.67;14.27;;;;;;;;;;769081;182;918781;-62
2021/10/07 09:28:06;;;;;;;28.27;18.60;;;;;;;;;;763151;182;918509;-63
2021/10/07 09:30:32;;;;;;;22.97;16.17;;;;;;;;;;767129;182;919104;-62
2021/10/07 09:33:00;;;;;;;25.03;16.60;;;;;;;;;;764817;182;949469;-62
2021/10/07 09:35:26;;;;;;;22.83;16.63;;;;;;;;;;775572;180;932440;-62
2021/10/07 09:37:56;;;;;;;25.10;15.10;;;;;;;;;;764586;182;919099;-63
2021/10/07 09:40:17;;;;;;;25.57;16.17;;;;;;;;;;757197;182;921085;-62
2021/10/07 09:42:45;;;;;;;27.60;17.17;;;;;;;;;;768894;182;920359;-62
2021/10/07 09:45:26;;;;;;;156.63;81.30;;;;;;;;;;761040;180;919296;-62
2021/10/07 09:47:51;;;;;;;95.37;67.43;;;;;;;;;;762613;181;919535;-63
2021/10/07 09:50:17;;;;;;;23.77;15.33;;;;;;;;;;764198;181;920819;-63
2021/10/07 09:52:43;;;;;;;21.53;14.03;;;;;;;;;;768678;182;917617;-63
2021/10/07 09:55:09;;;;;;;19.70;13.10;;;;;;;;;;752621;182;926068;-63
2021/10/07 09:57:35;;;;;;;18.53;12.73;;;;;;;;;;764062;182;960178;-63
2021/10/07 10:00:02;;;;;;;16.63;12.00;;;;;;;;;;761012;182;919091;-63
2021/10/07 10:02:27;;;;;;;23.43;12.47;;;;;;;;;;767238;182;943481;-63
2021/10/07 10:04:54;;;;;;;19.10;12.20;;;;;;;;;;763078;182;918950;-63
2021/10/07 10:07:18;;;;;;;23.50;12.87;;;;;;;;;;765642;182;920477;-63
2021/10/07 10:09:44;;;;;;;21.90;13.40;;;;;;;;;;770685;182;919011;-63
2021/10/07 10:12:10;;;;;;;30.60;13.65;;;;;;;;;;763391;181;913031;-63
2021/10/07 10:14:36;;;;;;;20.53;13.00;;;;;;;;;;760558;182;1019591;-63
2021/10/07 10:17:02;;;;;;;23.97;13.40;;;;;;;;;;771533;181;915285;-63
2021/10/07 10:19:27;;;;;;;32.20;14.27;;;;;;;;;;762514;181;920423;-63
2021/10/07 10:21:55;;;;;;;24.17;14.50;;;;;;;;;;763967;180;920679;-62
2021/10/07 10:24:19;;;;;;;24.03;15.60;;;;;;;;;;772997;181;923485;-65
2021/10/07 10:26:45;;;;;;;24.00;15.10;;;;;;;;;;765574;181;918044;-62
2021/10/07 10:29:17;;;;;;;24.70;15.43;;;;;;;;;;765402;181;918269;-63
2021/10/07 10:31:42;;;;;;;25.67;15.93;;;;;;;;;;765424;182;920190;-63
2021/10/07 10:34:10;;;;;;;30.80;17.02;;;;;;;;;;768973;182;919691;-62
2021/10/07 10:36:37;;;;;;;28.90;17.23;;;;;;;;;;766005;182;918998;-62
2021/10/07 10:39:03;;;;;;;29.40;17.63;;;;;;;;;;766957;181;920764;-62
2021/10/07 10:41:48;;;;;;;28.57;17.63;;;;;;;;;;760209;181;1108075;-61
2021/10/07 10:44:20;;;;;;;25.93;17.57;;;;;;;;;;760177;182;919963;-63
2021/10/07 10:46:46;;;;;;;31.80;19.27;;;;;;;;;;773107;181;920713;-63
2021/10/07 10:49:12;;;;;;;32.87;19.60;;;;;;;;;;763289;182;919764;-63
2021/10/07 10:51:37;;;;;;;29.50;18.93;;;;;;;;;;766887;182;917842;-63
2021/10/07 10:54:03;;;;;;;31.62;17.37;;;;;;;;;;771105;182;917818;-63
2021/10/07 10:56:32;;;;;;;32.20;19.90;;;;;;;;;;760446;182;919747;-63
2021/10/07 10:59:03;;;;;;;28.77;19.20;;;;;;;;;;763905;182;925064;-63
2021/10/07 11:01:29;;;;;;;32.40;19.13;;;;;;;;;;761808;180;1017766;-64
2021/10/07 11:03:55;;;;;;;34.20;20.45;;;;;;;;;;770297;182;876937;-63
2021/10/07 11:06:21;;;;;;;39.47;21.17;;;;;;;;;;764533;182;919999;-64
2021/10/07 11:08:47;;;;;;;38.47;22.95;;;;;;;;;;762603;182;921405;-65
2021/10/07 11:11:19;;;;;;;35.75;22.20;;;;;;;;;;766153;182;941943;-63
2021/10/07 11:13:45;;;;;;;43.00;25.30;;;;;;;;;;764441;182;920873;-63
2021/10/07 11:16:14;;;;;;;39.97;23.87;;;;;;;;;;758440;181;1021428;-64
2021/10/07 11:18:37;;;;;;;48.63;24.83;;;;;;;;;;763455;183;982164;-63
2021/10/07 11:21:05;;;;;;;61.50;30.07;;;;;;;;;;769326;181;915724;-63
2021/10/07 11:23:32;;;;;;;52.30;27.97;;;;;;;;;;762520;182;909888;-63
2021/10/07 11:25:55;;;;;;;44.85;27.87;;;;;;;;;;763807;180;921517;-63
2021/10/07 11:28:25;;;;;;;53.00;29.87;;;;;;;;;;760498;181;918098;-63
2021/10/07 11:30:50;;;;;;;57.17;27.53;;;;;;;;;;767125;181;918447;-64
2021/10/07 11:33:16;;;;;;;43.97;27.17;;;;;;;;;;762899;182;915853;-62
2021/10/07 11:35:42;;;;;;;49.87;29.20;;;;;;;;;;767157;181;915067;-62
2021/10/07 11:38:08;;;;;;;48.03;27.50;;;;;;;;;;769128;182;911281;-64
2021/10/07 11:40:54;;;;;;;57.67;31.37;;;;;;;;;;761431;180;912074;-65
2021/10/07 11:43:21;;;;;;;51.20;28.10;;;;;;;;;;769447;181;910617;-63
2021/10/07 11:45:55;;;;;;;49.43;26.37;;;;;;;;;;760868;182;917366;-63
2021/10/07 11:48:21;;;;;;;56.27;30.90;;;;;;;;;;762883;182;919218;-63
2021/10/07 11:50:48;;;;;;;63.37;34.50;;;;;;;;;;772571;180;907898;-63
2021/10/07 11:53:13;;;;;;;58.43;31.37;;;;;;;;;;764710;181;919993;-63
2021/10/07 11:55:40;;;;;;;56.63;34.47;;;;;;;;;;763408;182;1009643;-63
2021/10/07 11:58:06;;;;;;;53.67;29.73;;;;;;;;;;762732;180;1037468;-63
2021/10/07 12:00:32;;;;;;;58.78;32.08;;;;;;;;;;766986;182;919301;-63
2021/10/07 12:03:04;;;;;;;56.97;32.67;;;;;;;;;;761998;182;918757;-63
2021/10/07 12:05:30;;;;;;;55.33;32.33;;;;;;;;;;761350;180;918840;-63
2021/10/07 12:08:11;;;;;;;56.10;32.23;;;;;;;;;;769858;182;918587;-62
2021/10/07 12:10:35;;;;;;;58.87;33.17;;;;;;;;;;767629;182;918093;-62
2021/10/07 12:13:04;;;;;;;54.90;31.97;;;;;;;;;;765797;181;918837;-63
2021/10/07 12:15:30;;;;;;;63.43;30.30;;;;;;;;;;761929;183;920272;-62
2021/10/07 12:17:56;;;;;;;48.27;28.87;;;;;;;;;;749365;187;919557;-62
2021/10/07 12:20:22;;;;;;;59.23;34.80;;;;;;;;;;751298;186;919189;-63
2021/10/07 12:22:48;;;;;;;54.90;30.77;;;;;;;;;;764199;181;919449;-64
2021/10/07 12:25:13;;;;;;;57.97;30.92;;;;;;;;;;764628;182;919711;-63
2021/10/07 12:27:39;;;;;;;45.93;28.50;;;;;;;;;;765755;180;919630;-63
2021/10/07 12:30:06;;;;;;;53.03;26.37;;;;;;;;;;765282;182;918906;-63
2021/10/07 12:32:32;;;;;;;51.47;31.15;;;;;;;;;;761702;182;1041106;-63
2021/10/07 12:34:57;;;;;;;51.00;29.40;;;;;;;;;;769070;182;919669;-63
2021/10/07 12:37:23;;;;;;;49.27;26.70;;;;;;;;;;759955;182;1023327;-63
2021/10/07 12:39:52;;;;;;;48.53;27.33;;;;;;;;;;766583;182;919071;-63
2021/10/07 12:42:18;;;;;;;41.17;21.80;;;;;;;;;;767151;180;920717;-64
2021/10/07 12:44:44;;;;;;;45.83;26.43;;;;;;;;;;765434;182;645389;-64
2021/10/07 12:47:10;;;;;;;51.23;28.47;;;;;;;;;;764431;182;646252;-66
2021/10/07 12:49:37;;;;;;;48.23;29.20;;;;;;;;;;772237;181;631102;-66
2021/10/07 12:52:09;;;;;;;43.20;25.17;;;;;;;;;;774057;181;644808;-65
2021/10/07 12:54:35;;;;;;;46.80;26.30;;;;;;;;;;766253;180;918758;-64
2021/10/07 12:57:01;;;;;;;41.17;25.00;;;;;;;;;;761999;182;919237;-64
2021/10/07 12:59:26;;;;;;;49.30;27.00;;;;;;;;;;762873;182;919677;-64
2021/10/07 13:01:52;;;;;;;48.20;24.77;;;;;;;;;;769255;180;919031;-63
2021/10/07 13:04:20;;;;;;;46.00;25.90;;;;;;;;;;764566;182;918671;-64
2021/10/07 13:06:45;;;;;;;53.77;27.40;;;;;;;;;;763738;182;919182;-64
2021/10/07 13:09:11;;;;;;;41.40;22.97;;;;;;;;;;768824;182;918802;-62
2021/10/07 13:11:36;;;;;;;43.97;25.47;;;;;;;;;;766049;182;919430;-62
2021/10/07 13:14:02;;;;;;;46.10;26.17;;;;;;;;;;761059;182;920057;-61
2021/10/07 13:16:28;;;;;;;45.77;26.00;;;;;;;;;;766019;183;919943;-63
2021/10/07 13:18:54;;;;;;;44.73;25.73;;;;;;;;;;763332;182;919739;-62
2021/10/07 13:21:21;;;;;;;44.63;26.53;;;;;;;;;;765434;182;919976;-62
2021/10/07 13:23:47;;;;;;;44.87;25.80;;;;;;;;;;756357;183;919492;-61
2021/10/07 13:26:12;;;;;;;43.80;26.50;;;;;;;;;;763861;183;918843;-63
2021/10/07 13:28:38;;;;;;;50.13;27.40;;;;;;;;;;758974;181;918730;-64
2021/10/07 13:31:04;;;;;;;49.03;27.33;;;;;;;;;;766413;182;918714;-62
2021/10/07 13:33:30;;;;;;;42.90;25.57;;;;;;;;;;770813;182;919741;-62
2021/10/07 13:35:57;;;;;;;40.63;26.47;;;;;;;;;;763436;181;1029171;-63
2021/10/07 13:38:22;;;;;;;38.70;24.60;;;;;;;;;;764829;182;919269;-62
2021/10/07 13:40:48;;;;;;;46.37;26.73;;;;;;;;;;768950;181;919031;-63
2021/10/07 13:43:14;;;;;;;41.03;23.90;;;;;;;;;;762356;182;919572;-62
2021/10/07 13:45:40;;;;;;;45.78;25.95;;;;;;;;;;757017;181;2152577;-63
2021/10/07 13:48:06;;;;;;;36.20;25.40;;;;;;;;;;756972;183;919079;-62
2021/10/07 13:50:32;;;;;;;41.77;25.30;;;;;;;;;;758616;179;921516;-61
2021/10/07 13:52:59;;;;;;;37.90;24.23;;;;;;;;;;765063;180;918741;-62
2021/10/07 13:55:23;;;;;;;37.23;23.83;;;;;;;;;;764850;181;920999;-61
2021/10/07 13:57:50;;;;;;;37.00;24.70;;;;;;;;;;770059;181;919403;-63
2021/10/07 14:00:16;;;;;;;42.43;25.43;;;;;;;;;;766581;181;916626;-68